sensor_id;sensor_type;location;lat;lon;timestamp;pressure;altitude;pressure_sealevel;temperature;humidity
5574;BME280;2563;52.242;7.956;2023-07-30T00:01:57;99879.94;;;16.30;100.00
5574;BME280;2563;52.242;7.956;2023-07-30T00:04:22;99881.88;;;16.26;100.00
5574;BME280;2563;52.242;7.956;2023-07-30T00:06:48;99882.91;;;16.24;100.00
5574;BME280;2563;52.242;7.956;2023-07-30T00:09:14;99879.81;;;16.17;100.00
5574;BME280;2563;52.242;7.956;2023-07-30T00:11:39;99876.00;;;16.08;100.00
5574;BME280;2563;52.242;7.956;2023-07-30T00:14:04;99877.19;;;16.03;100.00
5574;BME280;2563;52.242;7.956;2023-07-30T00:16:30;99884.56;;;15.94;100.00
5574;BME280;2563;52.242;7.956;2023-07-30T00:18:55;99879.56;;;15.91;100.00
5574;BME280;2563;52.242;7.956;2023-07-30T00:21:22;99880.50;;;15.90;100.00
5574;BME280;2563;52.242;7.956;2023-07-30T00:23:47;99880.84;;;15.84;100.00
5574;BME280;2563;52.242;7.956;2023-07-30T00:26:12;99883.53;;;15.83;100.00
5574;BME280;2563;52.242;7.956;2023-07-30T00:28:38;99887.22;;;15.79;100.00
5574;BME280;2563;52.242;7.956;2023-07-30T00:31:03;99887.28;;;15.77;100.00
5574;BME280;2563;52.242;7.956;2023-07-30T00:33:29;99884.28;;;15.69;100.00
5574;BME280;2563;52.242;7.956;2023-07-30T00:35:54;99884.34;;;15.67;100.00
5574;BME280;2563;52.242;7.956;2023-07-30T00:38:19;99886.19;;;15.65;100.00
5574;BME280;2563;52.242;7.956;2023-07-30T00:40:45;99884.78;;;15.60;100.00
5574;BME280;2563;52.242;7.956;2023-07-30T00:43:10;99886.63;;;15.58;100.00
5574;BME280;2563;52.242;7.956;2023-07-30T00:45:36;99881.63;;;15.55;100.00
5574;BME280;2563;52.242;7.956;2023-07-30T00:48:04;99875.59;;;15.54;100.00
5574;BME280;2563;52.242;7.956;2023-07-30T00:50:29;99874.91;;;15.50;100.00
5574;BME280;2563;52.242;7.956;2023-07-30T00:52:55;99800.72;;;15.48;100.00
5574;BME280;2563;52.242;7.956;2023-07-30T00:55:21;99784.59;;;15.43;100.00
5574;BME280;2563;52.242;7.956;2023-07-30T00:57:47;99756.97;;;15.42;100.00
5574;BME280;2563;52.242;7.956;2023-07-30T01:00:13;99737.22;;;15.39;100.00
5574;BME280;2563;52.242;7.956;2023-07-30T01:02:39;99733.06;;;15.37;100.00
5574;BME280;2563;52.242;7.956;2023-07-30T01:05:04;99736.91;;;15.29;100.00
5574;BME280;2563;52.242;7.956;2023-07-30T01:07:30;99730.25;;;15.25;100.00
5574;BME280;2563;52.242;7.956;2023-07-30T01:09:56;99726.91;;;15.23;100.00
5574;BME280;2563;52.242;7.956;2023-07-30T01:12:22;99725.91;;;15.26;100.00
5574;BME280;2563;52.242;7.956;2023-07-30T01:14:48;99731.28;;;15.23;100.00
5574;BME280;2563;52.242;7.956;2023-07-30T01:17:15;99728.94;;;15.18;100.00
5574;BME280;2563;52.242;7.956;2023-07-30T01:19:41;99731.78;;;15.14;100.00
5574;BME280;2563;52.242;7.956;2023-07-30T01:22:06;99726.75;;;15.10;100.00
5574;BME280;2563;52.242;7.956;2023-07-30T01:24:31;99720.09;;;15.06;100.00
5574;BME280;2563;52.242;7.956;2023-07-30T01:27:07;99701.19;;;15.04;100.00
5574;BME280;2563;52.242;7.956;2023-07-30T01:29:49;99709.88;;;15.03;100.00
5574;BME280;2563;52.242;7.956;2023-07-30T01:32:20;99710.06;;;15.00;100.00
5574;BME280;2563;52.242;7.956;2023-07-30T01:34:51;99705.88;;;14.98;100.00
5574;BME280;2563;52.242;7.956;2023-07-30T01:37:17;99700.50;;;15.01;100.00
5574;BME280;2563;52.242;7.956;2023-07-30T01:39:44;99705.88;;;14.98;100.00
5574;BME280;2563;52.242;7.956;2023-07-30T01:42:12;99704.38;;;14.94;100.00
5574;BME280;2563;52.242;7.956;2023-07-30T01:44:37;99682.88;;;14.92;100.00
5574;BME280;2563;52.242;7.956;2023-07-30T01:47:03;99838.47;;;14.90;100.00
5574;BME280;2563;52.242;7.956;2023-07-30T01:49:28;99918.03;;;14.88;100.00
5574;BME280;2563;52.242;7.956;2023-07-30T01:51:53;99969.91;;;14.86;100.00
5574;BME280;2563;52.242;7.956;2023-07-30T01:54:19;99997.81;;;14.81;100.00
5574;BME280;2563;52.242;7.956;2023-07-30T01:56:44;100026.19;;;14.84;100.00
5574;BME280;2563;52.242;7.956;2023-07-30T01:59:09;100047.88;;;14.82;100.00
5574;BME280;2563;52.242;7.956;2023-07-30T02:01:35;100066.00;;;14.82;100.00
5574;BME280;2563;52.242;7.956;2023-07-30T02:04:00;100104.22;;;14.78;100.00
5574;BME280;2563;52.242;7.956;2023-07-30T02:06:25;100112.75;;;14.80;100.00
5574;BME280;2563;52.242;7.956;2023-07-30T02:08:51;100126.53;;;14.81;100.00
5574;BME280;2563;52.242;7.956;2023-07-30T02:11:16;100147.19;;;14.82;100.00
5574;BME280;2563;52.242;7.956;2023-07-30T02:13:41;100160.06;;;14.84;100.00
5574;BME280;2563;52.242;7.956;2023-07-30T02:16:07;100160.78;;;14.87;100.00
5574;BME280;2563;52.242;7.956;2023-07-30T02:18:33;100166.00;;;14.86;100.00
5574;BME280;2563;52.242;7.956;2023-07-30T02:20:58;100165.47;;;14.79;100.00
5574;BME280;2563;52.242;7.956;2023-07-30T02:23:23;100165.63;;;14.76;100.00
5574;BME280;2563;52.242;7.956;2023-07-30T02:25:49;100178.03;;;14.70;100.00
5574;BME280;2563;52.242;7.956;2023-07-30T02:28:14;100182.31;;;14.71;100.00
5574;BME280;2563;52.242;7.956;2023-07-30T02:30:39;100191.91;;;14.68;100.00
5574;BME280;2563;52.242;7.956;2023-07-30T02:33:05;100210.91;;;14.67;100.00
5574;BME280;2563;52.242;7.956;2023-07-30T02:35:30;100221.84;;;14.74;100.00
5574;BME280;2563;52.242;7.956;2023-07-30T02:37:56;100521.69;;;14.71;100.00
5574;BME280;2563;52.242;7.956;2023-07-30T02:40:21;100532.16;;;14.67;100.00
5574;BME280;2563;52.242;7.956;2023-07-30T02:42:46;100528.09;;;14.62;100.00
5574;BME280;2563;52.242;7.956;2023-07-30T02:45:12;100534.25;;;14.59;100.00
5574;BME280;2563;52.242;7.956;2023-07-30T02:47:37;100537.75;;;14.58;100.00
5574;BME280;2563;52.242;7.956;2023-07-30T02:50:06;100536.03;;;14.57;100.00
5574;BME280;2563;52.242;7.956;2023-07-30T02:52:31;100547.41;;;14.53;100.00
5574;BME280;2563;52.242;7.956;2023-07-30T02:54:57;100549.91;;;14.56;100.00
5574;BME280;2563;52.242;7.956;2023-07-30T02:57:22;100555.09;;;14.56;100.00
5574;BME280;2563;52.242;7.956;2023-07-30T02:59:47;100554.19;;;14.57;100.00
5574;BME280;2563;52.242;7.956;2023-07-30T03:02:13;100556.91;;;14.54;100.00
5574;BME280;2563;52.242;7.956;2023-07-30T03:04:38;100562.78;;;14.58;100.00
5574;BME280;2563;52.242;7.956;2023-07-30T03:07:04;100558.56;;;14.55;100.00
5574;BME280;2563;52.242;7.956;2023-07-30T03:09:29;100564.53;;;14.57;100.00
5574;BME280;2563;52.242;7.956;2023-07-30T03:11:54;100575.06;;;14.53;100.00
5574;BME280;2563;52.242;7.956;2023-07-30T03:14:20;100571.75;;;14.49;100.00
5574;BME280;2563;52.242;7.956;2023-07-30T03:16:48;100576.38;;;14.41;100.00
5574;BME280;2563;52.242;7.956;2023-07-30T03:19:14;100579.06;;;14.39;100.00
5574;BME280;2563;52.242;7.956;2023-07-30T03:21:41;100583.38;;;14.39;100.00
5574;BME280;2563;52.242;7.956;2023-07-30T03:24:06;100581.56;;;14.41;100.00
5574;BME280;2563;52.242;7.956;2023-07-30T03:26:31;100588.53;;;14.39;100.00
5574;BME280;2563;52.242;7.956;2023-07-30T03:28:57;100587.88;;;14.34;100.00
5574;BME280;2563;52.242;7.956;2023-07-30T03:31:22;100587.09;;;14.32;100.00
5574;BME280;2563;52.242;7.956;2023-07-30T03:33:48;100593.25;;;14.29;100.00
5574;BME280;2563;52.242;7.956;2023-07-30T03:36:14;100591.25;;;14.36;100.00
5574;BME280;2563;52.242;7.956;2023-07-30T03:38:40;100599.81;;;14.38;100.00
5574;BME280;2563;52.242;7.956;2023-07-30T03:41:06;100606.00;;;14.34;100.00
5574;BME280;2563;52.242;7.956;2023-07-30T03:43:35;100591.81;;;14.44;100.00
5574;BME280;2563;52.242;7.956;2023-07-30T03:46:00;100608.91;;;14.48;100.00
5574;BME280;2563;52.242;7.956;2023-07-30T03:48:26;100604.38;;;14.53;100.00
5574;BME280;2563;52.242;7.956;2023-07-30T03:50:53;100604.22;;;14.58;100.00
5574;BME280;2563;52.242;7.956;2023-07-30T03:53:18;100603.22;;;14.62;100.00
5574;BME280;2563;52.242;7.956;2023-07-30T03:55:44;100601.34;;;14.65;100.00
5574;BME280;2563;52.242;7.956;2023-07-30T03:58:09;100596.88;;;14.69;100.00
5574;BME280;2563;52.242;7.956;2023-07-30T04:00:34;100602.53;;;14.79;100.00
5574;BME280;2563;52.242;7.956;2023-07-30T04:03:00;100607.56;;;14.82;100.00
5574;BME280;2563;52.242;7.956;2023-07-30T04:05:25;100616.91;;;14.86;100.00
5574;BME280;2563;52.242;7.956;2023-07-30T04:07:50;100622.84;;;14.89;100.00
5574;BME280;2563;52.242;7.956;2023-07-30T04:10:16;100624.47;;;14.92;100.00
5574;BME280;2563;52.242;7.956;2023-07-30T04:12:41;100626.25;;;14.90;100.00
5574;BME280;2563;52.242;7.956;2023-07-30T04:15:07;100622.84;;;14.89;100.00
5574;BME280;2563;52.242;7.956;2023-07-30T04:17:36;100623.03;;;14.85;100.00
5574;BME280;2563;52.242;7.956;2023-07-30T04:20:02;100617.94;;;14.82;100.00
5574;BME280;2563;52.242;7.956;2023-07-30T04:22:27;100611.09;;;14.81;100.00
5574;BME280;2563;52.242;7.956;2023-07-30T04:24:53;100616.31;;;14.79;100.00
5574;BME280;2563;52.242;7.956;2023-07-30T04:27:18;100619.03;;;14.76;100.00
5574;BME280;2563;52.242;7.956;2023-07-30T04:29:44;100624.09;;;14.79;100.00
5574;BME280;2563;52.242;7.956;2023-07-30T04:32:09;100627.47;;;14.81;100.00
5574;BME280;2563;52.242;7.956;2023-07-30T04:34:34;100622.75;;;14.91;100.00
5574;BME280;2563;52.242;7.956;2023-07-30T04:37:00;100619.09;;;14.97;100.00
5574;BME280;2563;52.242;7.956;2023-07-30T04:39:27;100622.59;;;15.16;100.00
5574;BME280;2563;52.242;7.956;2023-07-30T04:41:52;100625.28;;;15.13;100.00
5574;BME280;2563;52.242;7.956;2023-07-30T04:44:17;100623.66;;;15.10;100.00
5574;BME280;2563;52.242;7.956;2023-07-30T04:46:43;100622.69;;;15.13;100.00
5574;BME280;2563;52.242;7.956;2023-07-30T04:49:08;100633.16;;;15.12;100.00
5574;BME280;2563;52.242;7.956;2023-07-30T04:51:33;100618.88;;;15.22;100.00
5574;BME280;2563;52.242;7.956;2023-07-30T04:53:59;100632.41;;;15.30;100.00
5574;BME280;2563;52.242;7.956;2023-07-30T04:56:24;100629.53;;;15.36;100.00
5574;BME280;2563;52.242;7.956;2023-07-30T04:58:51;100638.72;;;15.43;100.00
5574;BME280;2563;52.242;7.956;2023-07-30T05:01:17;100631.53;;;15.50;100.00
5574;BME280;2563;52.242;7.956;2023-07-30T05:03:42;100638.28;;;15.54;100.00
5574;BME280;2563;52.242;7.956;2023-07-30T05:06:07;100642.34;;;15.60;100.00
5574;BME280;2563;52.242;7.956;2023-07-30T05:08:33;100641.41;;;15.61;100.00
5574;BME280;2563;52.242;7.956;2023-07-30T05:10:58;100646.81;;;15.56;100.00
5574;BME280;2563;52.242;7.956;2023-07-30T05:13:23;100647.88;;;15.52;100.00
5574;BME280;2563;52.242;7.956;2023-07-30T05:15:49;100649.09;;;15.64;100.00
5574;BME280;2563;52.242;7.956;2023-07-30T05:18:14;100650.97;;;15.81;100.00
5574;BME280;2563;52.242;7.956;2023-07-30T05:20:40;100651.53;;;15.87;100.00
5574;BME280;2563;52.242;7.956;2023-07-30T05:23:05;100653.81;;;16.14;100.00
5574;BME280;2563;52.242;7.956;2023-07-30T05:25:32;100654.84;;;16.48;100.00
5574;BME280;2563;52.242;7.956;2023-07-30T05:27:57;100664.66;;;16.79;100.00
5574;BME280;2563;52.242;7.956;2023-07-30T05:30:22;100659.91;;;17.05;100.00
5574;BME280;2563;52.242;7.956;2023-07-30T05:32:48;100678.22;;;17.20;100.00
5574;BME280;2563;52.242;7.956;2023-07-30T05:35:13;100674.22;;;17.13;100.00
5574;BME280;2563;52.242;7.956;2023-07-30T05:37:39;100688.81;;;16.81;100.00
5574;BME280;2563;52.242;7.956;2023-07-30T05:40:04;100691.41;;;16.62;100.00
5574;BME280;2563;52.242;7.956;2023-07-30T05:42:30;100691.69;;;16.56;100.00
5574;BME280;2563;52.242;7.956;2023-07-30T05:44:55;100692.25;;;16.63;100.00
5574;BME280;2563;52.242;7.956;2023-07-30T05:47:21;100687.31;;;16.56;100.00
5574;BME280;2563;52.242;7.956;2023-07-30T05:49:46;100690.66;;;16.41;100.00
5574;BME280;2563;52.242;7.956;2023-07-30T05:52:11;100687.91;;;16.25;100.00
5574;BME280;2563;52.242;7.956;2023-07-30T05:54:37;100687.56;;;16.33;100.00
5574;BME280;2563;52.242;7.956;2023-07-30T05:57:02;100682.50;;;16.49;100.00
5574;BME280;2563;52.242;7.956;2023-07-30T05:59:28;100684.66;;;16.58;100.00
5574;BME280;2563;52.242;7.956;2023-07-30T06:01:55;100686.06;;;16.65;100.00
5574;BME280;2563;52.242;7.956;2023-07-30T06:04:21;100680.72;;;16.87;100.00
5574;BME280;2563;52.242;7.956;2023-07-30T06:06:46;100682.94;;;16.95;100.00
5574;BME280;2563;52.242;7.956;2023-07-30T06:09:12;100687.06;;;16.82;100.00
5574;BME280;2563;52.242;7.956;2023-07-30T06:11:37;100690.44;;;16.84;100.00
5574;BME280;2563;52.242;7.956;2023-07-30T06:14:03;100709.25;;;16.89;100.00
5574;BME280;2563;52.242;7.956;2023-07-30T06:16:28;100747.63;;;16.84;100.00
5574;BME280;2563;52.242;7.956;2023-07-30T06:18:53;100752.22;;;16.77;100.00
5574;BME280;2563;52.242;7.956;2023-07-30T06:21:19;100747.44;;;16.68;100.00
5574;BME280;2563;52.242;7.956;2023-07-30T06:23:44;100750.88;;;16.68;100.00
5574;BME280;2563;52.242;7.956;2023-07-30T06:26:09;100742.41;;;16.65;100.00
5574;BME280;2563;52.242;7.956;2023-07-30T06:28:35;100772.31;;;16.73;100.00
5574;BME280;2563;52.242;7.956;2023-07-30T06:31:01;100763.44;;;16.79;100.00
5574;BME280;2563;52.242;7.956;2023-07-30T06:33:27;100751.53;;;16.92;100.00
5574;BME280;2563;52.242;7.956;2023-07-30T06:35:52;100742.63;;;16.98;100.00
5574;BME280;2563;52.242;7.956;2023-07-30T06:38:18;100738.03;;;17.03;100.00
5574;BME280;2563;52.242;7.956;2023-07-30T06:40:43;100732.28;;;16.96;100.00
5574;BME280;2563;52.242;7.956;2023-07-30T06:43:08;100724.25;;;17.01;100.00
5574;BME280;2563;52.242;7.956;2023-07-30T06:45:34;100703.16;;;17.07;100.00
5574;BME280;2563;52.242;7.956;2023-07-30T06:47:59;100700.25;;;17.13;100.00
5574;BME280;2563;52.242;7.956;2023-07-30T06:50:24;100686.63;;;17.43;100.00
5574;BME280;2563;52.242;7.956;2023-07-30T06:52:50;100660.72;;;17.57;100.00
5574;BME280;2563;52.242;7.956;2023-07-30T06:55:15;100650.47;;;17.54;100.00
5574;BME280;2563;52.242;7.956;2023-07-30T06:57:40;100645.84;;;17.26;100.00
5574;BME280;2563;52.242;7.956;2023-07-30T07:00:06;100622.16;;;17.15;100.00
5574;BME280;2563;52.242;7.956;2023-07-30T07:02:32;100603.19;;;17.46;100.00
5574;BME280;2563;52.242;7.956;2023-07-30T07:04:58;100585.03;;;17.29;100.00
5574;BME280;2563;52.242;7.956;2023-07-30T07:07:23;100555.25;;;17.34;100.00
5574;BME280;2563;52.242;7.956;2023-07-30T07:09:48;100536.63;;;17.09;100.00
5574;BME280;2563;52.242;7.956;2023-07-30T07:12:14;100510.69;;;17.07;100.00
5574;BME280;2563;52.242;7.956;2023-07-30T07:14:39;100471.34;;;17.13;100.00
5574;BME280;2563;52.242;7.956;2023-07-30T07:17:06;100428.50;;;17.36;100.00
5574;BME280;2563;52.242;7.956;2023-07-30T07:19:31;100407.84;;;17.49;100.00
5574;BME280;2563;52.242;7.956;2023-07-30T07:22:01;100375.53;;;17.53;100.00
5574;BME280;2563;52.242;7.956;2023-07-30T07:24:27;100358.34;;;17.35;100.00
5574;BME280;2563;52.242;7.956;2023-07-30T07:26:52;100332.75;;;17.43;100.00
5574;BME280;2563;52.242;7.956;2023-07-30T07:29:17;100326.63;;;17.28;100.00
5574;BME280;2563;52.242;7.956;2023-07-30T07:31:45;100300.13;;;17.21;100.00
5574;BME280;2563;52.242;7.956;2023-07-30T07:34:10;100292.53;;;17.33;100.00
5574;BME280;2563;52.242;7.956;2023-07-30T07:36:37;100293.34;;;17.49;100.00
5574;BME280;2563;52.242;7.956;2023-07-30T07:39:03;100288.78;;;17.38;100.00
5574;BME280;2563;52.242;7.956;2023-07-30T07:41:28;100279.41;;;17.50;100.00
5574;BME280;2563;52.242;7.956;2023-07-30T07:43:54;100265.09;;;17.57;100.00
5574;BME280;2563;52.242;7.956;2023-07-30T07:46:19;100264.75;;;17.63;100.00
5574;BME280;2563;52.242;7.956;2023-07-30T07:48:45;100259.44;;;17.81;100.00
5574;BME280;2563;52.242;7.956;2023-07-30T07:51:11;100248.38;;;17.61;100.00
5574;BME280;2563;52.242;7.956;2023-07-30T07:53:37;100248.09;;;17.82;100.00
5574;BME280;2563;52.242;7.956;2023-07-30T07:56:03;100247.28;;;17.81;100.00
5574;BME280;2563;52.242;7.956;2023-07-30T07:58:29;100239.78;;;17.75;100.00
5574;BME280;2563;52.242;7.956;2023-07-30T08:00:55;100238.19;;;18.03;100.00
5574;BME280;2563;52.242;7.956;2023-07-30T08:03:21;100222.09;;;18.11;100.00
5574;BME280;2563;52.242;7.956;2023-07-30T08:05:47;100216.13;;;18.23;100.00
5574;BME280;2563;52.242;7.956;2023-07-30T08:08:12;100211.28;;;18.17;100.00
5574;BME280;2563;52.242;7.956;2023-07-30T08:10:38;100206.50;;;18.38;100.00
5574;BME280;2563;52.242;7.956;2023-07-30T08:13:04;100199.38;;;18.68;100.00
5574;BME280;2563;52.242;7.956;2023-07-30T08:15:30;100187.94;;;18.57;100.00
5574;BME280;2563;52.242;7.956;2023-07-30T08:17:55;100189.56;;;18.72;100.00
5574;BME280;2563;52.242;7.956;2023-07-30T08:20:20;100176.81;;;18.82;100.00
5574;BME280;2563;52.242;7.956;2023-07-30T08:22:46;100187.34;;;18.80;100.00
5574;BME280;2563;52.242;7.956;2023-07-30T08:25:11;100177.84;;;18.79;100.00
5574;BME280;2563;52.242;7.956;2023-07-30T08:27:37;100171.53;;;18.96;100.00
5574;BME280;2563;52.242;7.956;2023-07-30T08:30:02;100169.34;;;18.90;100.00
5574;BME280;2563;52.242;7.956;2023-07-30T08:32:27;100170.59;;;18.84;100.00
5574;BME280;2563;52.242;7.956;2023-07-30T08:34:53;100170.97;;;18.78;100.00
5574;BME280;2563;52.242;7.956;2023-07-30T08:37:18;100171.53;;;18.69;100.00
5574;BME280;2563;52.242;7.956;2023-07-30T08:39:43;100174.66;;;18.74;100.00
5574;BME280;2563;52.242;7.956;2023-07-30T08:42:09;100168.59;;;18.61;100.00
5574;BME280;2563;52.242;7.956;2023-07-30T08:44:34;100170.78;;;18.67;100.00
5574;BME280;2563;52.242;7.956;2023-07-30T08:47:00;100161.13;;;18.55;100.00
5574;BME280;2563;52.242;7.956;2023-07-30T08:49:25;100155.66;;;18.72;100.00
5574;BME280;2563;52.242;7.956;2023-07-30T08:51:53;100149.31;;;18.90;100.00
5574;BME280;2563;52.242;7.956;2023-07-30T08:54:20;100145.81;;;19.17;100.00
5574;BME280;2563;52.242;7.956;2023-07-30T08:56:46;100154.06;;;19.11;100.00
5574;BME280;2563;52.242;7.956;2023-07-30T08:59:13;100145.69;;;19.06;100.00
5574;BME280;2563;52.242;7.956;2023-07-30T09:01:39;100140.22;;;18.83;100.00
5574;BME280;2563;52.242;7.956;2023-07-30T09:04:06;100134.91;;;18.98;100.00
5574;BME280;2563;52.242;7.956;2023-07-30T09:06:32;100142.22;;;19.05;100.00
5574;BME280;2563;52.242;7.956;2023-07-30T09:08:58;100131.00;;;19.56;100.00
5574;BME280;2563;52.242;7.956;2023-07-30T09:11:26;100128.03;;;19.99;100.00
5574;BME280;2563;52.242;7.956;2023-07-30T09:13:54;100121.44;;;20.91;100.00
5574;BME280;2563;52.242;7.956;2023-07-30T09:16:24;100117.09;;;20.31;100.00
5574;BME280;2563;52.242;7.956;2023-07-30T09:18:50;100108.00;;;19.87;100.00
5574;BME280;2563;52.242;7.956;2023-07-30T09:21:18;100066.69;;;19.29;100.00
5574;BME280;2563;52.242;7.956;2023-07-30T09:23:45;100040.63;;;19.04;100.00
5574;BME280;2563;52.242;7.956;2023-07-30T09:26:11;100021.22;;;19.21;100.00
5574;BME280;2563;52.242;7.956;2023-07-30T09:28:37;100022.00;;;19.34;100.00
5574;BME280;2563;52.242;7.956;2023-07-30T09:31:07;100033.63;;;19.17;100.00
5574;BME280;2563;52.242;7.956;2023-07-30T09:33:34;100036.00;;;19.59;100.00
5574;BME280;2563;52.242;7.956;2023-07-30T09:36:03;100029.28;;;20.28;100.00
5574;BME280;2563;52.242;7.956;2023-07-30T09:38:29;100021.78;;;20.83;100.00
5574;BME280;2563;52.242;7.956;2023-07-30T09:41:02;100030.06;;;20.77;100.00
5574;BME280;2563;52.242;7.956;2023-07-30T09:43:36;100040.13;;;21.06;100.00
5574;BME280;2563;52.242;7.956;2023-07-30T09:46:03;100039.16;;;21.07;100.00
5574;BME280;2563;52.242;7.956;2023-07-30T09:48:30;100052.41;;;20.70;100.00
5574;BME280;2563;52.242;7.956;2023-07-30T09:51:01;100054.88;;;20.95;100.00
5574;BME280;2563;52.242;7.956;2023-07-30T09:53:30;100059.84;;;20.98;100.00
5574;BME280;2563;52.242;7.956;2023-07-30T09:56:01;100073.13;;;20.84;100.00
5574;BME280;2563;52.242;7.956;2023-07-30T09:58:28;100081.03;;;20.60;100.00
5574;BME280;2563;52.242;7.956;2023-07-30T10:00:53;100096.03;;;20.69;100.00
5574;BME280;2563;52.242;7.956;2023-07-30T10:03:20;100085.81;;;21.13;100.00
5574;BME280;2563;52.242;7.956;2023-07-30T10:05:46;100082.50;;;21.33;100.00
5574;BME280;2563;52.242;7.956;2023-07-30T10:08:19;100091.09;;;21.69;100.00
5574;BME280;2563;52.242;7.956;2023-07-30T10:10:46;100088.56;;;22.01;100.00
5574;BME280;2563;52.242;7.956;2023-07-30T10:13:12;100084.19;;;22.45;100.00
5574;BME280;2563;52.242;7.956;2023-07-30T10:15:39;100085.88;;;22.88;100.00
5574;BME280;2563;52.242;7.956;2023-07-30T10:18:04;100101.28;;;23.14;100.00
5574;BME280;2563;52.242;7.956;2023-07-30T10:20:31;100107.53;;;23.44;100.00
5574;BME280;2563;52.242;7.956;2023-07-30T10:22:58;100115.44;;;23.53;100.00
5574;BME280;2563;52.242;7.956;2023-07-30T10:25:52;100142.53;;;23.02;100.00
5574;BME280;2563;52.242;7.956;2023-07-30T10:28:33;100148.22;;;23.07;100.00
5574;BME280;2563;52.242;7.956;2023-07-30T10:31:06;100156.66;;;23.32;100.00
5574;BME280;2563;52.242;7.956;2023-07-30T10:33:50;100164.03;;;23.17;100.00
5574;BME280;2563;52.242;7.956;2023-07-30T10:36:30;100175.22;;;22.98;100.00
5574;BME280;2563;52.242;7.956;2023-07-30T10:38:56;100191.13;;;22.53;100.00
5574;BME280;2563;52.242;7.956;2023-07-30T10:41:21;100186.63;;;22.44;100.00
5574;BME280;2563;52.242;7.956;2023-07-30T10:43:49;100181.47;;;23.18;100.00
5574;BME280;2563;52.242;7.956;2023-07-30T10:46:16;100187.56;;;23.40;100.00
5574;BME280;2563;52.242;7.956;2023-07-30T10:48:44;100192.97;;;22.73;100.00
5574;BME280;2563;52.242;7.956;2023-07-30T10:51:12;100175.69;;;23.66;100.00
5574;BME280;2563;52.242;7.956;2023-07-30T10:53:37;100173.16;;;24.16;100.00
5574;BME280;2563;52.242;7.956;2023-07-30T10:56:05;100144.69;;;25.29;100.00
5574;BME280;2563;52.242;7.956;2023-07-30T10:58:32;100113.41;;;25.81;100.00
5574;BME280;2563;52.242;7.956;2023-07-30T11:00:58;100121.94;;;25.75;100.00
5574;BME280;2563;52.242;7.956;2023-07-30T11:03:27;100116.56;;;26.22;100.00
5574;BME280;2563;52.242;7.956;2023-07-30T11:05:54;100167.13;;;25.33;100.00
5574;BME280;2563;52.242;7.956;2023-07-30T11:08:31;100187.75;;;23.48;100.00
5574;BME280;2563;52.242;7.956;2023-07-30T11:10:57;100189.53;;;23.05;100.00
5574;BME280;2563;52.242;7.956;2023-07-30T11:13:22;100187.97;;;22.70;100.00
5574;BME280;2563;52.242;7.956;2023-07-30T11:15:48;100177.63;;;22.90;100.00
5574;BME280;2563;52.242;7.956;2023-07-30T11:18:14;100182.88;;;23.01;100.00
5574;BME280;2563;52.242;7.956;2023-07-30T11:20:40;100187.34;;;22.78;100.00
5574;BME280;2563;52.242;7.956;2023-07-30T11:23:21;100189.59;;;22.83;100.00
5574;BME280;2563;52.242;7.956;2023-07-30T11:25:50;100180.94;;;23.45;100.00
5574;BME280;2563;52.242;7.956;2023-07-30T11:28:38;100192.44;;;23.44;100.00
5574;BME280;2563;52.242;7.956;2023-07-30T11:31:14;100202.56;;;23.28;100.00
5574;BME280;2563;52.242;7.956;2023-07-30T11:33:42;100186.31;;;23.86;100.00
5574;BME280;2563;52.242;7.956;2023-07-30T11:36:10;100181.38;;;23.92;100.00
5574;BME280;2563;52.242;7.956;2023-07-30T11:38:38;100167.28;;;24.92;100.00
5574;BME280;2563;52.242;7.956;2023-07-30T11:41:04;100163.78;;;25.40;100.00
5574;BME280;2563;52.242;7.956;2023-07-30T11:43:30;100223.75;;;23.57;100.00
5574;BME280;2563;52.242;7.956;2023-07-30T11:46:16;100219.38;;;22.93;100.00
5574;BME280;2563;52.242;7.956;2023-07-30T11:59:04;100271.50;;;22.20;100.00
5574;BME280;2563;52.242;7.956;2023-07-30T12:01:31;100273.63;;;22.38;100.00
5574;BME280;2563;52.242;7.956;2023-07-30T12:04:00;100276.00;;;22.18;100.00
5574;BME280;2563;52.242;7.956;2023-07-30T12:06:49;100283.19;;;22.39;100.00
5574;BME280;2563;52.242;7.956;2023-07-30T12:14:15;100277.47;;;23.32;100.00
5574;BME280;2563;52.242;7.956;2023-07-30T12:16:41;100294.47;;;23.28;100.00
5574;BME280;2563;52.242;7.956;2023-07-30T12:19:06;100357.56;;;22.94;100.00
5574;BME280;2563;52.242;7.956;2023-07-30T12:21:32;100394.78;;;22.88;100.00
5574;BME280;2563;52.242;7.956;2023-07-30T12:23:58;100428.16;;;22.86;100.00
5574;BME280;2563;52.242;7.956;2023-07-30T12:26:23;100478.53;;;22.91;100.00
5574;BME280;2563;52.242;7.956;2023-07-30T12:28:48;100539.44;;;22.25;100.00
5574;BME280;2563;52.242;7.956;2023-07-30T12:31:14;100578.66;;;22.51;100.00
5574;BME280;2563;52.242;7.956;2023-07-30T12:33:39;100630.63;;;22.46;100.00
5574;BME280;2563;52.242;7.956;2023-07-30T12:36:04;100654.38;;;22.32;100.00
5574;BME280;2563;52.242;7.956;2023-07-30T12:38:30;100649.34;;;22.16;100.00
5574;BME280;2563;52.242;7.956;2023-07-30T12:40:55;100650.13;;;22.42;100.00
5574;BME280;2563;52.242;7.956;2023-07-30T12:43:21;100673.91;;;22.02;100.00
5574;BME280;2563;52.242;7.956;2023-07-30T12:45:47;100681.50;;;21.94;100.00
5574;BME280;2563;52.242;7.956;2023-07-30T12:48:12;100679.75;;;22.18;100.00
5574;BME280;2563;52.242;7.956;2023-07-30T12:50:37;100682.28;;;22.20;100.00
5574;BME280;2563;52.242;7.956;2023-07-30T12:53:03;100675.88;;;22.61;100.00
5574;BME280;2563;52.242;7.956;2023-07-30T12:55:28;100695.47;;;22.44;100.00
5574;BME280;2563;52.242;7.956;2023-07-30T12:57:54;100698.47;;;22.50;100.00
5574;BME280;2563;52.242;7.956;2023-07-30T13:00:19;100689.44;;;22.79;100.00
5574;BME280;2563;52.242;7.956;2023-07-30T13:02:45;100704.50;;;22.88;100.00
5574;BME280;2563;52.242;7.956;2023-07-30T13:05:10;100705.63;;;23.21;100.00
5574;BME280;2563;52.242;7.956;2023-07-30T13:07:36;100760.03;;;23.19;100.00
5574;BME280;2563;52.242;7.956;2023-07-30T13:10:08;100817.47;;;22.86;100.00
5574;BME280;2563;52.242;7.956;2023-07-30T13:12:34;100847.22;;;22.87;100.00
5574;BME280;2563;52.242;7.956;2023-07-30T13:15:00;100865.16;;;23.06;100.00